Time;durP1;ratioP1;P1;durP2;ratioP2;P2;SDS_P1;SDS_P2;PMS_P1;PMS_P2;Temp;Humidity;BMP_temperature;BMP_pressure;BME280_temperature;BME280_humidity;BME280_pressure;Samples;Min_cycle;Max_cycle;Signal;HPM_P1;HPM_P2
2021/03/18 00:01:43;;;;;;;10.73;6.82;;;9.40;57.80;;;;;;5074516;28;20031;-74
2021/03/18 00:04:11;;;;;;;9.55;6.70;;;9.30;57.20;;;;;;5074521;28;20563;-75
2021/03/18 00:06:39;;;;;;;10.55;6.85;;;9.30;57.50;;;;;;5074273;28;20166;-75
2021/03/18 00:09:09;;;;;;;10.27;7.32;;;9.20;57.90;;;;;;5074274;28;20085;-75
2021/03/18 00:11:37;;;;;;;9.93;6.22;;;9.10;57.50;;;;;;5074544;28;20024;-74
2021/03/18 00:14:03;;;;;;;8.25;5.90;;;9.10;57.70;;;;;;5074354;28;20021;-74
2021/03/18 00:16:29;;;;;;;11.07;5.82;;;9.00;57.70;;;;;;5074285;28;20028;-74
2021/03/18 00:18:56;;;;;;;7.68;5.43;;;9.10;57.70;;;;;;5073958;28;20098;-73
2021/03/18 00:21:22;;;;;;;9.43;5.30;;;9.10;57.60;;;;;;5074010;28;20358;-75
2021/03/18 00:23:49;;;;;;;9.00;5.35;;;9.10;57.70;;;;;;5073919;28;20059;-73
2021/03/18 00:26:17;;;;;;;7.45;5.47;;;9.10;57.70;;;;;;5074087;28;20027;-74
2021/03/18 00:28:43;;;;;;;7.88;4.97;;;9.00;57.70;;;;;;5055958;28;20024;-78
2021/03/18 00:31:09;;;;;;;8.77;5.55;;;8.90;58.00;;;;;;5073923;28;20020;-77
2021/03/18 00:33:35;;;;;;;7.63;4.78;;;8.80;57.90;;;;;;5077562;28;20351;-75
2021/03/18 00:36:00;;;;;;;6.95;4.60;;;8.70;58.10;;;;;;5073894;28;20099;-75
2021/03/18 00:38:27;;;;;;;7.72;5.28;;;8.70;58.40;;;;;;5074191;28;20112;-75
2021/03/18 00:40:56;;;;;;;7.85;4.75;;;8.70;58.70;;;;;;5073885;28;20020;-75
2021/03/18 00:43:22;;;;;;;6.72;4.57;;;8.70;58.70;;;;;;5073771;28;20052;-76
2021/03/18 00:45:49;;;;;;;7.32;4.68;;;8.70;58.30;;;;;;5073746;28;20080;-75
2021/03/18 00:48:17;;;;;;;7.07;4.97;;;8.70;58.30;;;;;;5073532;28;20096;-75
2021/03/18 00:50:46;;;;;;;9.48;4.93;;;8.70;58.10;;;;;;5073930;28;20047;-74
2021/03/18 00:53:15;;;;;;;7.45;4.93;;;8.70;58.70;;;;;;5073380;28;20065;-73
2021/03/18 00:55:41;;;;;;;6.40;4.70;;;8.70;58.30;;;;;;5073459;28;20036;-77
2021/03/18 00:58:08;;;;;;;8.18;5.10;;;8.70;58.00;;;;;;5073597;28;20029;-77
2021/03/18 01:00:43;;;;;;;6.93;5.00;;;8.70;58.20;;;;;;5073368;28;20025;-77
2021/03/18 01:03:13;;;;;;;7.88;5.25;;;8.70;58.30;;;;;;5073321;28;20073;-76
2021/03/18 01:05:52;;;;;;;7.32;5.07;;;8.70;58.90;;;;;;5055633;28;20029;-75
2021/03/18 01:08:21;;;;;;;6.60;5.10;;;8.70;59.00;;;;;;5073301;28;20028;-74
2021/03/18 01:10:51;;;;;;;7.18;5.30;;;8.70;58.80;;;;;;5073393;28;20032;-76
2021/03/18 01:13:19;;;;;;;8.63;5.55;;;8.70;58.60;;;;;;5055002;28;20488;-76
2021/03/18 01:15:58;;;;;;;8.23;5.55;;;8.60;58.50;;;;;;5072683;28;20186;-76
2021/03/18 01:18:30;;;;;;;8.85;5.93;;;8.70;58.40;;;;;;5073100;28;20040;-75
2021/03/18 01:20:55;;;;;;;9.60;6.18;;;8.80;58.70;;;;;;5055150;28;20023;-77
2021/03/18 01:23:21;;;;;;;9.88;6.75;;;8.60;58.60;;;;;;5073245;28;20437;-76
2021/03/18 01:25:47;;;;;;;10.00;6.45;;;8.50;58.30;;;;;;5054998;28;20071;-76
2021/03/18 01:28:13;;;;;;;10.93;6.95;;;8.40;59.30;;;;;;5073151;28;20089;-76
2021/03/18 01:30:39;;;;;;;8.30;5.95;;;8.40;59.20;;;;;;5073032;28;20032;-74
2021/03/18 01:33:07;;;;;;;9.80;6.22;;;8.50;59.30;;;;;;5072987;28;20504;-74
2021/03/18 01:35:33;;;;;;;9.05;5.80;;;8.50;58.60;;;;;;5073050;28;20027;-75
2021/03/18 01:37:59;;;;;;;9.13;5.72;;;8.40;58.80;;;;;;5073075;28;20460;-75
2021/03/18 01:40:28;;;;;;;9.45;6.18;;;8.40;59.00;;;;;;5072919;28;20048;-74
2021/03/18 01:42:55;;;;;;;8.40;5.45;;;8.50;58.70;;;;;;5072634;28;20024;-74
2021/03/18 01:45:23;;;;;;;7.40;4.85;;;8.50;58.80;;;;;;5072789;28;20458;-77
2021/03/18 01:47:52;;;;;;;8.95;4.63;;;8.50;58.70;;;;;;5072669;28;20369;-76
2021/03/18 01:50:23;;;;;;;9.10;5.78;;;8.30;58.30;;;;;;5072510;28;20036;-73
2021/03/18 01:52:49;;;;;;;8.27;5.53;;;8.20;58.80;;;;;;5072619;28;20021;-76
2021/03/18 01:55:38;;;;;;;8.38;5.93;;;8.30;59.20;;;;;;5072430;28;20103;-73
2021/03/18 01:58:06;;;;;;;7.85;5.22;;;8.40;59.40;;;;;;5072742;28;20020;-75
2021/03/18 02:00:33;;;;;;;9.02;6.03;;;8.40;58.90;;;;;;5072490;28;20048;-74
2021/03/18 02:02:59;;;;;;;8.70;5.80;;;8.40;59.10;;;;;;5072672;28;20021;-74
2021/03/18 02:05:26;;;;;;;9.88;5.57;;;8.40;58.70;;;;;;5072464;28;20482;-74
2021/03/18 02:07:53;;;;;;;8.38;5.35;;;8.40;58.80;;;;;;5072750;28;20497;-74
2021/03/18 02:10:22;;;;;;;9.52;5.93;;;8.40;58.70;;;;;;5072724;28;20426;-73
2021/03/18 02:12:48;;;;;;;9.40;5.85;;;8.30;58.90;;;;;;5072353;28;20049;-73
2021/03/18 02:15:14;;;;;;;9.43;5.30;;;8.40;59.30;;;;;;5072676;28;20082;-75
2021/03/18 02:17:55;;;;;;;8.48;5.53;;;8.30;59.00;;;;;;5072774;28;20107;-73
2021/03/18 02:21:14;;;;;;;8.13;5.68;;;8.30;59.10;;;;;;5072766;28;20024;-74
2021/03/18 02:24:12;;;;;;;7.82;5.15;;;8.20;59.10;;;;;;4991495;28;20116;-77
2021/03/18 02:26:37;;;;;;;9.25;5.32;;;8.10;59.20;;;;;;4949758;28;20072;-74
2021/03/18 02:29:22;;;;;;;7.93;5.15;;;8.10;59.50;;;;;;5058307;28;20429;-75
2021/03/18 02:32:21;;;;;;;7.38;5.20;;;8.20;59.30;;;;;;5076089;28;20103;-74
2021/03/18 02:35:17;;;;;;;7.88;5.57;;;8.30;59.30;;;;;;5076119;28;20082;-74
2021/03/18 02:37:49;;;;;;;8.18;5.60;;;8.30;59.50;;;;;;5076069;28;20020;-74
2021/03/18 02:40:19;;;;;;;12.52;5.78;;;8.30;58.80;;;;;;5076036;28;20438;-74
2021/03/18 02:42:52;;;;;;;7.38;5.10;;;8.30;58.80;;;;;;5076177;28;20028;-75
2021/03/18 02:45:20;;;;;;;8.18;5.72;;;8.20;58.70;;;;;;5075802;28;20486;-74
2021/03/18 02:47:49;;;;;;;7.15;5.30;;;8.20;58.90;;;;;;5075795;28;20021;-76
2021/03/18 02:50:17;;;;;;;8.20;5.85;;;8.20;59.00;;;;;;5075984;28;20040;-74
2021/03/18 02:52:44;;;;;;;9.50;5.75;;;8.20;58.90;;;;;;5076042;28;20374;-73
2021/03/18 02:55:11;;;;;;;8.23;5.70;;;8.30;58.90;;;;;;5075832;28;20033;-74
2021/03/18 02:57:39;;;;;;;8.40;4.95;;;8.20;58.70;;;;;;5075333;28;20029;-75
2021/03/18 03:00:09;;;;;;;7.18;5.05;;;8.10;58.70;;;;;;5074970;28;20024;-74
2021/03/18 03:02:35;;;;;;;7.05;5.13;;;8.10;58.80;;;;;;5040709;28;20039;-76
2021/03/18 03:05:03;;;;;;;10.07;6.32;;;8.10;58.70;;;;;;5057423;28;20108;-75
2021/03/18 03:07:30;;;;;;;7.95;5.20;;;8.00;58.30;;;;;;5075118;28;20029;-73
2021/03/18 03:09:59;;;;;;;8.32;5.45;;;8.00;58.50;;;;;;5075221;28;20145;-76
2021/03/18 03:12:28;;;;;;;8.40;5.60;;;7.90;58.70;;;;;;5075489;28;20162;-76
2021/03/18 03:14:55;;;;;;;7.60;5.25;;;7.90;59.00;;;;;;5075119;28;20036;-73
2021/03/18 03:17:25;;;;;;;8.68;5.60;;;7.90;59.20;;;;;;5075467;28;20040;-73
2021/03/18 03:19:53;;;;;;;8.30;6.10;;;7.90;59.00;;;;;;5075240;28;20119;-74
2021/03/18 03:22:20;;;;;;;7.70;5.40;;;8.00;59.00;;;;;;5075103;28;20466;-74
2021/03/18 03:24:46;;;;;;;9.73;6.07;;;8.00;58.90;;;;;;5075014;28;20082;-74
2021/03/18 03:27:13;;;;;;;7.85;5.38;;;7.90;59.10;;;;;;5075109;28;20024;-74
2021/03/18 03:29:42;;;;;;;7.85;5.70;;;8.10;58.90;;;;;;5075336;28;20146;-76
2021/03/18 03:32:09;;;;;;;9.35;6.47;;;8.10;58.80;;;;;;5057170;28;20021;-76
2021/03/18 03:34:36;;;;;;;9.95;6.60;;;8.20;58.70;;;;;;5057467;28;20082;-75
2021/03/18 03:37:02;;;;;;;8.50;5.93;;;8.10;58.40;;;;;;5074382;28;20017;-73
2021/03/18 03:39:28;;;;;;;9.23;6.65;;;8.20;59.20;;;;;;5074771;28;20056;-74
2021/03/18 03:41:54;;;;;;;10.82;6.85;;;8.10;58.50;;;;;;5074549;28;20497;-74
2021/03/18 03:44:20;;;;;;;8.75;6.57;;;8.10;58.40;;;;;;5056968;28;20420;-74
2021/03/18 03:46:46;;;;;;;9.00;6.60;;;8.10;58.50;;;;;;5074628;28;20094;-77
2021/03/18 03:49:13;;;;;;;9.82;6.65;;;8.00;58.50;;;;;;5074450;28;20029;-74
2021/03/18 03:51:48;;;;;;;8.55;6.28;;;8.00;58.70;;;;;;5074579;28;20021;-73
2021/03/18 03:54:17;;;;;;;9.57;6.97;;;7.90;58.90;;;;;;5074576;28;20031;-75
2021/03/18 03:57:03;;;;;;;9.70;6.80;;;8.00;58.70;;;;;;5074723;28;20027;-78
2021/03/18 03:59:30;;;;;;;8.90;6.63;;;7.80;58.80;;;;;;5075308;28;20077;-76
2021/03/18 04:01:58;;;;;;;9.63;7.20;;;7.90;58.90;;;;;;5075066;28;20076;-73
2021/03/18 04:04:34;;;;;;;11.25;7.05;;;7.80;59.00;;;;;;5074831;28;20021;-77
2021/03/18 04:07:12;;;;;;;10.32;7.45;;;7.80;58.80;;;;;;5074823;28;20035;-78
2021/03/18 04:09:39;;;;;;;9.70;7.13;;;7.70;58.70;;;;;;5074899;28;20358;-76
2021/03/18 04:12:06;;;;;;;10.25;6.90;;;7.60;59.10;;;;;;5074664;28;20093;-76
2021/03/18 04:14:34;;;;;;;10.82;7.70;;;7.50;59.40;;;;;;5074538;28;20055;-76
2021/03/18 04:17:07;;;;;;;10.15;7.07;;;7.60;59.40;;;;;;5074343;28;20033;-76
2021/03/18 04:19:34;;;;;;;13.68;7.97;;;7.60;59.40;;;;;;5074588;28;20048;-78
2021/03/18 04:22:01;;;;;;;11.27;8.20;;;7.60;59.40;;;;;;5074528;28;20040;-76
2021/03/18 04:24:28;;;;;;;11.25;8.48;;;7.60;59.50;;;;;;5074328;28;20032;-73
2021/03/18 04:26:55;;;;;;;13.95;9.48;;;7.70;59.40;;;;;;5073819;28;20028;-74
2021/03/18 04:29:22;;;;;;;12.23;9.30;;;7.70;59.40;;;;;;5073974;28;20402;-74
2021/03/18 04:31:48;;;;;;;16.52;9.82;;;7.60;59.10;;;;;;5073755;28;20039;-75
2021/03/18 04:34:17;;;;;;;18.45;10.73;;;7.60;59.30;;;;;;5074009;28;20029;-74
2021/03/18 04:36:44;;;;;;;14.48;10.98;;;7.60;59.10;;;;;;5073808;28;20021;-73
2021/03/18 04:39:11;;;;;;;15.38;11.13;;;7.50;59.50;;;;;;5073774;28;20024;-74
2021/03/18 04:41:37;;;;;;;15.55;11.23;;;7.50;59.50;;;;;;5073694;28;20031;-74
2021/03/18 04:44:05;;;;;;;16.45;11.65;;;7.50;59.50;;;;;;5074171;28;20025;-74
2021/03/18 04:46:32;;;;;;;16.15;11.02;;;7.40;59.60;;;;;;5073841;28;20029;-75
2021/03/18 04:49:01;;;;;;;15.48;10.82;;;7.30;59.50;;;;;;5074115;28;20373;-73
2021/03/18 04:51:27;;;;;;;14.98;11.02;;;7.40;59.80;;;;;;5082980;28;20029;-74
2021/03/18 04:53:57;;;;;;;13.93;10.25;;;7.40;59.90;;;;;;5079774;28;20477;-73
2021/03/18 04:56:24;;;;;;;13.90;10.27;;;7.40;59.60;;;;;;5077493;28;20104;-74
2021/03/18 04:58:51;;;;;;;13.00;9.77;;;7.40;59.70;;;;;;5073477;28;20070;-72
2021/03/18 05:01:18;;;;;;;13.38;9.85;;;7.30;59.40;;;;;;5073117;28;20385;-76
2021/03/18 05:03:47;;;;;;;14.77;9.48;;;7.30;59.60;;;;;;5073228;28;20063;-74
2021/03/18 05:06:13;;;;;;;14.43;9.68;;;7.40;59.50;;;;;;5072784;28;20470;-75
2021/03/18 05:08:40;;;;;;;14.55;9.05;;;7.50;59.30;;;;;;5055142;28;20055;-75
2021/03/18 05:11:07;;;;;;;10.85;8.18;;;7.50;58.60;;;;;;5073362;28;20029;-74
2021/03/18 05:13:34;;;;;;;12.68;8.90;;;7.50;58.60;;;;;;5072939;28;20025;-75
2021/03/18 05:16:03;;;;;;;12.75;9.10;;;7.40;58.40;;;;;;5073312;28;20476;-77
2021/03/18 05:18:31;;;;;;;14.57;8.70;;;7.40;58.80;;;;;;5072621;28;20051;-75
2021/03/18 05:20:59;;;;;;;12.95;8.75;;;7.30;58.90;;;;;;5073000;28;20035;-75
2021/03/18 05:23:25;;;;;;;15.32;9.00;;;7.40;59.20;;;;;;5073090;28;20074;-74
2021/03/18 05:25:51;;;;;;;14.73;9.57;;;7.50;59.10;;;;;;5072792;28;20032;-74
2021/03/18 05:28:17;;;;;;;12.75;9.52;;;7.60;59.10;;;;;;5073145;28;20024;-74
2021/03/18 05:30:43;;;;;;;12.60;9.70;;;7.70;58.90;;;;;;5072877;28;20159;-74
2021/03/18 05:33:09;;;;;;;13.93;9.57;;;7.70;58.70;;;;;;5073211;28;20047;-74
2021/03/18 05:35:39;;;;;;;14.00;9.82;;;7.60;58.70;;;;;;5072931;28;20035;-73
2021/03/18 05:38:06;;;;;;;15.68;10.23;;;7.50;58.80;;;;;;5073424;28;20377;-74
2021/03/18 05:40:33;;;;;;;14.52;10.25;;;7.50;58.90;;;;;;5073878;28;20064;-77
2021/03/18 05:42:59;;;;;;;12.48;9.90;;;7.50;58.90;;;;;;5073343;28;20056;-74
2021/03/18 05:45:25;;;;;;;16.45;11.40;;;7.50;59.20;;;;;;5072736;28;20183;-76
2021/03/18 05:47:51;;;;;;;16.80;12.10;;;7.30;59.20;;;;;;5072961;28;20138;-74
2021/03/18 05:50:19;;;;;;;20.80;12.75;;;7.20;59.50;;;;;;5073051;28;20166;-76
2021/03/18 05:52:47;;;;;;;18.05;13.82;;;7.10;59.90;;;;;;5072968;28;20056;-76
2021/03/18 05:55:13;;;;;;;19.00;13.80;;;6.90;60.10;;;;;;5072722;28;20032;-75
2021/03/18 05:57:40;;;;;;;18.92;13.68;;;6.70;60.30;;;;;;5072933;28;20021;-75
2021/03/18 06:00:15;;;;;;;18.48;13.85;;;6.70;60.90;;;;;;5072515;28;20036;-75
2021/03/18 06:02:42;;;;;;;19.45;14.55;;;6.70;60.90;;;;;;5076603;28;20481;-74
2021/03/18 06:05:10;;;;;;;19.90;13.45;;;6.60;60.60;;;;;;5076657;28;20020;-73
2021/03/18 06:07:37;;;;;;;19.30;13.80;;;6.50;61.00;;;;;;5076773;28;20044;-74
2021/03/18 06:10:14;;;;;;;17.95;13.77;;;6.60;61.50;;;;;;5076712;28;20075;-75
2021/03/18 06:12:41;;;;;;;17.58;13.18;;;6.60;60.60;;;;;;5077097;28;20104;-76
2021/03/18 06:15:09;;;;;;;19.85;13.18;;;6.70;60.70;;;;;;5076376;28;20385;-74
2021/03/18 06:17:36;;;;;;;18.48;13.40;;;6.70;60.50;;;;;;5076206;28;20025;-75
2021/03/18 06:20:05;;;;;;;17.42;13.15;;;6.80;60.30;;;;;;5076290;28;20040;-76
2021/03/18 06:22:33;;;;;;;17.92;13.68;;;6.80;60.10;;;;;;5076101;28;20070;-77
2021/03/18 06:25:00;;;;;;;16.90;12.52;;;6.80;60.40;;;;;;5076288;28;20056;-74
2021/03/18 06:27:26;;;;;;;15.80;12.32;;;6.80;60.30;;;;;;5081207;28;20021;-74
2021/03/18 06:29:51;;;;;;;20.88;12.80;;;6.80;59.90;;;;;;5084006;28;20370;-75
2021/03/18 06:32:21;;;;;;;18.05;11.80;;;6.90;60.40;;;;;;5076630;28;20027;-73
2021/03/18 06:34:56;;;;;;;18.45;12.23;;;7.00;60.30;;;;;;5075841;28;20025;-73
2021/03/18 06:37:42;;;;;;;19.08;11.75;;;7.10;60.20;;;;;;5076274;28;20016;-75
2021/03/18 06:40:13;;;;;;;19.92;11.80;;;7.30;59.70;;;;;;5076359;28;20029;-79
2021/03/18 06:42:55;;;;;;;15.73;10.98;;;7.50;58.90;;;;;;5076740;28;20024;-76
2021/03/18 06:45:21;;;;;;;15.85;11.23;;;7.50;59.10;;;;;;5076470;28;20476;-75
2021/03/18 06:47:51;;;;;;;15.75;11.52;;;7.50;58.20;;;;;;5075897;28;20091;-74
2021/03/18 06:50:20;;;;;;;14.75;10.07;;;7.70;58.30;;;;;;5075746;28;20048;-75
2021/03/18 06:52:46;;;;;;;16.00;10.98;;;7.90;57.90;;;;;;5075890;28;20024;-76
2021/03/18 06:55:24;;;;;;;20.77;11.80;;;8.00;57.60;;;;;;5075712;28;20032;-75
2021/03/18 06:58:09;;;;;;;15.82;11.75;;;8.00;57.30;;;;;;5076263;28;20021;-77
2021/03/18 07:00:36;;;;;;;16.63;11.63;;;8.00;57.20;;;;;;5075568;28;20103;-75
2021/03/18 07:03:01;;;;;;;14.70;11.07;;;8.00;57.10;;;;;;5075472;28;20029;-76
2021/03/18 07:05:27;;;;;;;17.90;12.30;;;8.00;57.10;;;;;;5075317;28;20028;-75
2021/03/18 07:07:56;;;;;;;17.83;11.93;;;8.10;57.20;;;;;;5075455;28;20039;-76
2021/03/18 07:10:33;;;;;;;14.75;11.43;;;8.10;57.40;;;;;;5075299;28;20037;-76
2021/03/18 07:13:25;;;;;;;19.23;12.05;;;8.00;56.70;;;;;;5075334;28;20098;-75
2021/03/18 07:15:53;;;;;;;20.20;12.35;;;8.00;57.10;;;;;;5075125;28;20075;-78
2021/03/18 07:18:19;;;;;;;18.20;11.20;;;8.00;57.10;;;;;;5074960;28;20068;-78
2021/03/18 07:21:11;;;;;;;15.07;10.43;;;8.10;56.80;;;;;;5075301;28;20066;-77
2021/03/18 07:23:41;;;;;;;16.15;10.80;;;8.20;56.60;;;;;;5075811;28;20373;-75
2021/03/18 07:26:13;;;;;;;16.25;9.63;;;8.30;56.30;;;;;;5075277;28;20020;-75
2021/03/18 07:28:39;;;;;;;11.65;9.07;;;8.40;55.60;;;;;;5074912;28;20020;-75
2021/03/18 07:31:05;;;;;;;15.10;9.98;;;8.50;55.10;;;;;;5075312;28;20404;-77
2021/03/18 07:33:33;;;;;;;14.30;9.98;;;8.50;55.10;;;;;;5075058;28;20028;-75
2021/03/18 07:36:00;;;;;;;14.18;9.38;;;8.60;54.90;;;;;;5075015;28;20473;-75
2021/03/18 07:38:28;;;;;;;14.57;9.45;;;8.70;54.70;;;;;;5075195;28;20024;-80
2021/03/18 07:40:55;;;;;;;13.32;8.88;;;9.00;54.80;;;;;;5074944;28;20059;-75
2021/03/18 07:43:22;;;;;;;15.70;9.48;;;9.10;54.40;;;;;;5074788;28;20032;-76
2021/03/18 07:45:55;;;;;;;10.98;8.35;;;9.20;54.20;;;;;;5074844;28;20021;-75
2021/03/18 07:48:23;;;;;;;15.43;8.88;;;9.30;54.20;;;;;;5074811;28;20135;-76
2021/03/18 07:50:50;;;;;;;12.20;8.68;;;9.30;54.50;;;;;;5074732;28;20485;-75
2021/03/18 07:53:18;;;;;;;13.73;8.98;;;9.50;53.90;;;;;;5074651;28;20103;-76
2021/03/18 07:55:47;;;;;;;11.63;8.90;;;9.60;53.90;;;;;;5074106;28;20127;-75
2021/03/18 07:58:13;;;;;;;13.88;9.13;;;9.60;53.60;;;;;;5074379;28;20684;-76
2021/03/18 08:00:58;;;;;;;15.32;9.68;;;9.70;53.60;;;;;;5074503;28;20029;-78
2021/03/18 08:03:23;;;;;;;15.70;9.57;;;9.80;53.40;;;;;;5059285;28;20039;-80
2021/03/18 08:05:50;;;;;;;16.48;10.02;;;9.90;53.30;;;;;;5056536;28;20380;-76
2021/03/18 08:08:31;;;;;;;13.98;9.15;;;10.00;52.20;;;;;;5074540;28;20473;-77
2021/03/18 08:11:03;;;;;;;16.92;10.00;;;10.10;52.90;;;;;;5074500;28;20470;-77
2021/03/18 08:13:34;;;;;;;15.30;9.48;;;10.10;52.20;;;;;;5074411;28;20134;-80
2021/03/18 08:16:00;;;;;;;15.73;9.85;;;10.20;52.00;;;;;;5074187;28;20017;-77
2021/03/18 08:18:25;;;;;;;15.05;9.27;;;10.30;52.00;;;;;;5074032;28;20039;-78
2021/03/18 08:20:51;;;;;;;16.63;9.02;;;10.30;51.90;;;;;;5074276;28;20021;-75
2021/03/18 08:23:25;;;;;;;12.65;8.48;;;10.40;52.00;;;;;;5073954;28;20020;-77
2021/03/18 08:25:53;;;;;;;13.68;8.27;;;10.40;51.60;;;;;;5073934;28;20036;-76
2021/03/18 08:28:39;;;;;;;13.45;8.27;;;10.40;51.60;;;;;;5073944;28;20052;-78
2021/03/18 08:31:08;;;;;;;12.93;8.40;;;10.50;51.80;;;;;;5073986;28;20496;-77
2021/03/18 08:33:35;;;;;;;13.07;8.13;;;10.50;51.30;;;;;;5074027;28;20021;-77
2021/03/18 08:36:19;;;;;;;11.95;8.27;;;10.50;51.20;;;;;;5073825;28;20025;-78
2021/03/18 08:38:46;;;;;;;12.20;7.82;;;10.50;50.70;;;;;;5074269;28;20099;-75
2021/03/18 08:41:42;;;;;;;12.68;8.32;;;10.40;50.60;;;;;;5073946;28;20020;-79
2021/03/18 08:44:14;;;;;;;10.77;6.55;;;10.30;50.60;;;;;;5073854;28;20032;-78
2021/03/18 08:46:55;;;;;;;12.83;6.97;;;10.20;50.60;;;;;;5073769;28;20137;-76
2021/03/18 08:49:36;;;;;;;14.38;7.55;;;10.30;50.50;;;;;;5055603;28;20454;-76
2021/03/18 08:52:08;;;;;;;9.63;6.47;;;10.30;50.40;;;;;;5073603;28;20023;-79
2021/03/18 08:54:36;;;;;;;9.68;6.70;;;10.40;49.70;;;;;;5073899;28;20025;-78
2021/03/18 08:57:03;;;;;;;10.00;6.75;;;10.60;49.00;;;;;;5073303;28;20031;-77
2021/03/18 08:59:30;;;;;;;8.38;6.05;;;10.70;48.00;;;;;;5074607;28;20103;-79
2021/03/18 09:02:35;;;;;;;10.38;6.03;;;10.80;47.20;;;;;;5074545;28;20024;-78
2021/03/18 09:05:21;;;;;;;11.60;6.32;;;10.90;46.90;;;;;;5061572;28;20173;-79
2021/03/18 09:07:52;;;;;;;11.50;5.93;;;11.00;47.60;;;;;;5074334;28;20485;-76
2021/03/18 09:10:21;;;;;;;13.40;5.90;;;11.10;47.10;;;;;;5055487;28;20112;-78
2021/03/18 09:12:56;;;;;;;13.05;5.72;;;11.10;47.00;;;;;;5072904;28;20303;-77
2021/03/18 09:15:28;;;;;;;10.60;6.07;;;11.10;46.40;;;;;;5072859;28;20044;-77
2021/03/18 09:18:14;;;;;;;7.78;5.50;;;11.10;46.80;;;;;;5072883;28;20028;-79
2021/03/18 09:20:43;;;;;;;11.05;5.38;;;11.30;46.00;;;;;;5073092;28;20178;-77
2021/03/18 09:23:16;;;;;;;10.18;5.68;;;11.40;45.50;;;;;;5074198;28;20044;-77
2021/03/18 09:25:44;;;;;;;12.70;4.93;;;11.60;45.10;;;;;;5074361;28;20047;-77
2021/03/18 09:28:12;;;;;;;8.65;4.70;;;11.50;44.50;;;;;;5073295;28;20090;-76
2021/03/18 09:30:45;;;;;;;10.27;5.35;;;11.50;44.90;;;;;;5073219;28;20081;-77
2021/03/18 09:33:23;;;;;;;10.82;5.63;;;11.50;45.10;;;;;;5072789;28;20363;-77
2021/03/18 09:35:50;;;;;;;9.77;5.75;;;11.60;45.40;;;;;;5075113;28;20093;-77
2021/03/18 09:38:22;;;;;;;9.00;5.57;;;11.70;44.10;;;;;;5061569;28;20024;-75
2021/03/18 09:40:48;;;;;;;8.40;4.80;;;11.80;44.70;;;;;;5079260;28;20025;-76
2021/03/18 09:43:18;;;;;;;8.98;4.65;;;11.90;44.10;;;;;;5061903;28;20256;-76
2021/03/18 09:45:52;;;;;;;8.50;4.95;;;12.00;44.00;;;;;;5078832;28;20025;-76
2021/03/18 09:48:33;;;;;;;8.38;4.55;;;12.10;44.10;;;;;;5079478;28;20021;-79
2021/03/18 09:51:12;;;;;;;9.80;4.50;;;12.10;43.80;;;;;;5079605;28;20111;-76
2021/03/18 09:53:39;;;;;;;10.95;4.40;;;12.10;42.90;;;;;;5079134;28;20123;-76
2021/03/18 09:56:12;;;;;;;9.65;4.45;;;12.00;43.00;;;;;;5078895;28;20087;-77
2021/03/18 09:58:38;;;;;;;5.82;3.80;;;11.90;44.10;;;;;;5078754;28;20363;-77
2021/03/18 10:01:10;;;;;;;9.48;4.47;;;11.90;41.40;;;;;;5060660;28;20123;-76
2021/03/18 10:03:36;;;;;;;5.70;2.95;;;11.90;41.60;;;;;;5078903;28;20025;-77
2021/03/18 10:06:10;;;;;;;5.57;2.83;;;11.90;41.50;;;;;;5078822;28;20035;-77
2021/03/18 10:08:37;;;;;;;6.07;3.35;;;11.90;41.50;;;;;;5078575;28;20036;-76
2021/03/18 10:11:16;;;;;;;6.47;3.72;;;11.80;40.70;;;;;;5078900;28;20043;-73
2021/03/18 10:13:42;;;;;;;6.70;3.42;;;11.90;40.80;;;;;;5060761;28;20063;-76
2021/03/18 10:16:09;;;;;;;8.30;3.55;;;11.90;40.90;;;;;;5079059;28;20061;-77
2021/03/18 10:18:39;;;;;;;8.07;3.78;;;12.00;40.60;;;;;;5078872;28;20378;-76
2021/03/18 10:21:06;;;;;;;5.40;3.42;;;12.00;40.40;;;;;;5078894;28;20028;-74
2021/03/18 10:23:34;;;;;;;6.28;3.38;;;12.10;40.30;;;;;;5078568;28;20028;-73
2021/03/18 10:26:00;;;;;;;6.50;3.28;;;12.20;40.20;;;;;;5078685;28;20027;-72
2021/03/18 10:28:31;;;;;;;6.40;3.03;;;12.30;39.90;;;;;;5078679;28;20079;-73
2021/03/18 10:31:02;;;;;;;6.60;3.88;;;12.40;39.70;;;;;;5078421;28;20044;-72
2021/03/18 10:33:33;;;;;;;28.17;6.65;;;12.50;39.80;;;;;;5078588;28;20048;-73
2021/03/18 10:36:01;;;;;;;10.60;3.92;;;12.60;39.80;;;;;;5078285;28;20074;-74
2021/03/18 10:38:26;;;;;;;11.70;4.63;;;12.50;38.60;;;;;;5078702;28;20044;-73
2021/03/18 10:40:55;;;;;;;10.13;3.80;;;12.60;38.80;;;;;;5078083;28;20060;-73
2021/03/18 10:43:29;;;;;;;6.63;3.00;;;12.60;38.60;;;;;;5078547;28;20032;-79
2021/03/18 10:45:59;;;;;;;8.88;2.65;;;12.70;37.70;;;;;;5078191;28;20016;-73
2021/03/18 10:48:27;;;;;;;5.50;2.90;;;12.60;37.80;;;;;;5074200;28;20012;-73
2021/03/18 10:51:00;;;;;;;4.60;2.35;;;12.60;36.40;;;;;;5075296;28;20068;-77
2021/03/18 10:53:26;;;;;;;6.68;2.53;;;12.60;36.60;;;;;;5075305;28;20035;-72
2021/03/18 10:55:54;;;;;;;4.95;2.67;;;12.70;36.10;;;;;;5075418;28;20028;-72
2021/03/18 10:58:25;;;;;;;4.38;2.10;;;12.80;36.30;;;;;;5057640;28;20123;-71
2021/03/18 11:01:01;;;;;;;4.38;2.10;;;12.90;36.40;;;;;;5075767;28;20322;-76
2021/03/18 11:03:33;;;;;;;5.70;2.15;;;13.00;34.90;;;;;;5076416;28;20032;-72
2021/03/18 11:05:59;;;;;;;5.40;2.40;;;13.10;33.80;;;;;;5075938;28;20107;-75
2021/03/18 11:08:28;;;;;;;5.10;2.33;;;13.20;35.20;;;;;;5076390;28;20024;-77
2021/03/18 11:10:55;;;;;;;7.68;2.80;;;13.20;34.80;;;;;;5076860;28;20036;-74
2021/03/18 11:13:24;;;;;;;4.72;2.30;;;13.30;34.40;;;;;;5076671;28;20104;-73
2021/03/18 11:16:04;;;;;;;5.70;2.03;;;13.40;34.10;;;;;;5059242;28;20239;-73
2021/03/18 11:18:43;;;;;;;3.33;1.75;;;13.50;33.50;;;;;;5075560;28;20040;-71
2021/03/18 11:21:29;;;;;;;6.78;2.10;;;13.60;32.60;;;;;;5076606;28;20033;-74
2021/03/18 11:24:04;;;;;;;3.15;1.95;;;13.70;32.60;;;;;;5075474;28;20103;-74
2021/03/18 11:26:32;;;;;;;5.72;2.17;;;13.70;33.80;;;;;;5075039;28;20478;-72
2021/03/18 11:29:09;;;;;;;5.53;2.17;;;13.80;33.60;;;;;;5057310;28;20480;-76
2021/03/18 11:31:41;;;;;;;9.98;2.55;;;13.70;33.30;;;;;;5057284;28;20025;-72
2021/03/18 11:34:21;;;;;;;7.88;2.20;;;13.70;32.40;;;;;;5075498;28;20082;-74
2021/03/18 11:36:57;;;;;;;5.15;1.98;;;13.90;33.40;;;;;;5075728;28;20020;-74
2021/03/18 11:39:24;;;;;;;3.95;2.00;;;14.00;32.10;;;;;;5075594;28;20065;-73
2021/03/18 11:41:52;;;;;;;4.90;2.38;;;14.10;32.80;;;;;;5075117;28;20059;-75
2021/03/18 11:44:18;;;;;;;6.00;2.53;;;14.20;33.20;;;;;;5076033;28;20070;-76
2021/03/18 11:46:44;;;;;;;5.03;2.00;;;14.20;32.40;;;;;;5075236;28;20425;-75
2021/03/18 11:49:10;;;;;;;4.70;2.03;;;14.30;32.20;;;;;;5075245;28;20033;-73
2021/03/18 11:51:37;;;;;;;5.38;2.08;;;14.50;32.70;;;;;;5075287;28;20323;-74
2021/03/18 11:54:03;;;;;;;4.03;1.90;;;14.70;32.30;;;;;;5075677;28;20028;-80
2021/03/18 11:56:29;;;;;;;3.88;1.80;;;14.70;31.70;;;;;;5075218;28;20016;-77
2021/03/18 11:58:55;;;;;;;3.17;1.75;;;14.70;30.20;;;;;;5074422;28;20035;-71
2021/03/18 12:01:20;;;;;;;6.53;2.28;;;14.80;30.40;;;;;;5074487;28;20025;-72
2021/03/18 12:03:46;;;;;;;3.42;1.77;;;14.90;31.00;;;;;;5074766;28;20036;-72
2021/03/18 12:06:12;;;;;;;3.88;1.73;;;14.80;29.50;;;;;;5074210;28;20494;-77
2021/03/18 12:08:38;;;;;;;3.75;1.67;;;14.90;29.90;;;;;;5056276;28;20025;-71
2021/03/18 12:11:05;;;;;;;7.55;2.25;;;15.00;29.30;;;;;;5074473;28;20046;-73
2021/03/18 12:13:31;;;;;;;5.10;2.30;;;15.00;29.60;;;;;;5056341;28;20025;-75
2021/03/18 12:15:57;;;;;;;4.38;2.33;;;15.00;29.70;;;;;;5074080;28;20098;-76
2021/03/18 12:18:23;;;;;;;3.88;1.70;;;15.10;29.90;;;;;;5073725;28;20489;-78
2021/03/18 12:20:49;;;;;;;3.28;1.80;;;15.00;28.70;;;;;;5056322;28;20039;-73
2021/03/18 12:23:15;;;;;;;3.95;1.98;;;14.90;28.40;;;;;;5074472;28;20032;-79
2021/03/18 12:25:40;;;;;;;3.60;1.50;;;14.90;27.60;;;;;;5074716;28;20036;-74
2021/03/18 12:28:06;;;;;;;3.30;1.58;;;15.00;27.10;;;;;;5074615;28;20028;-75
2021/03/18 12:30:32;;;;;;;2.17;1.20;;;14.90;27.20;;;;;;5074261;28;20036;-74
2021/03/18 12:32:59;;;;;;;3.83;1.50;;;14.80;26.20;;;;;;5075175;28;20024;-75
2021/03/18 12:35:25;;;;;;;3.28;1.73;;;14.70;25.10;;;;;;5083040;28;20028;-74
2021/03/18 12:37:52;;;;;;;4.43;2.03;;;14.70;26.60;;;;;;5089854;28;20063;-75
2021/03/18 12:40:20;;;;;;;5.57;1.90;;;14.80;26.90;;;;;;5085644;28;20474;-74
2021/03/18 12:42:46;;;;;;;5.35;1.83;;;14.90;27.10;;;;;;5074791;28;20062;-77
2021/03/18 12:45:14;;;;;;;7.55;2.50;;;15.00;26.60;;;;;;5074854;28;20024;-72
2021/03/18 12:47:41;;;;;;;4.07;1.88;;;15.00;26.50;;;;;;5073640;28;20013;-74
2021/03/18 12:50:10;;;;;;;3.53;1.65;;;15.00;27.50;;;;;;5073487;28;20503;-73
2021/03/18 12:52:37;;;;;;;3.47;1.58;;;15.10;26.60;;;;;;5073746;28;20550;-75
2021/03/18 12:55:05;;;;;;;4.07;1.73;;;15.10;26.60;;;;;;5055376;28;20028;-76
2021/03/18 12:57:31;;;;;;;3.78;1.73;;;15.10;25.60;;;;;;5073393;28;20027;-73
2021/03/18 12:59:56;;;;;;;4.43;1.75;;;15.10;25.80;;;;;;5073679;28;20115;-74
2021/03/18 13:02:23;;;;;;;4.47;2.05;;;15.10;26.60;;;;;;5073349;28;20465;-73